createdAt,value
2022-11-16T00:00:06.143Z,1004.66
2022-11-16T00:01:04.031Z,1004.66
2022-11-16T00:02:04.062Z,1004.61
2022-11-16T00:03:04.129Z,1004.60
2022-11-16T00:04:04.027Z,1004.57
2022-11-16T00:05:04.019Z,1004.58
2022-11-16T00:06:04.018Z,1004.53
2022-11-16T00:07:04.075Z,1004.55
2022-11-16T00:08:04.013Z,1004.53
2022-11-16T00:09:04.016Z,1004.52
2022-11-16T00:10:04.022Z,1004.49
2022-11-16T00:11:04.012Z,1004.47
2022-11-16T00:12:04.012Z,1004.50
2022-11-16T00:13:04.003Z,1004.48
2022-11-16T00:14:03.996Z,1004.44
2022-11-16T00:15:03.990Z,1004.44
2022-11-16T00:16:04.018Z,1004.46
2022-11-16T00:17:03.988Z,1004.47
2022-11-16T00:18:03.987Z,1004.51
2022-11-16T00:19:03.984Z,1004.50
2022-11-16T00:20:03.983Z,1004.54
2022-11-16T00:21:03.976Z,1004.55
2022-11-16T00:22:03.978Z,1004.53
2022-11-16T00:23:03.978Z,1004.50
2022-11-16T00:24:03.973Z,1004.49
2022-11-16T00:25:03.968Z,1004.45
2022-11-16T00:26:03.965Z,1004.50
2022-11-16T00:27:03.963Z,1004.49
2022-11-16T00:28:03.960Z,1004.48
2022-11-16T00:29:03.951Z,1004.44
2022-11-16T00:30:03.951Z,1004.47
2022-11-16T00:31:03.954Z,1004.44
2022-11-16T00:32:03.969Z,1004.45
2022-11-16T00:33:03.942Z,1004.46
2022-11-16T00:34:03.944Z,1004.44
2022-11-16T00:35:03.939Z,1004.39
2022-11-16T00:36:03.939Z,1004.41
2022-11-16T00:37:03.934Z,1004.44
2022-11-16T00:38:03.927Z,1004.45
2022-11-16T00:39:03.928Z,1004.45
2022-11-16T00:40:03.921Z,1004.37
2022-11-16T00:41:03.918Z,1004.42
2022-11-16T00:42:03.919Z,1004.40
2022-11-16T00:43:03.915Z,1004.40
2022-11-16T00:44:03.913Z,1004.38
2022-11-16T00:45:03.912Z,1004.41
2022-11-16T00:46:03.905Z,1004.43
2022-11-16T00:47:03.901Z,1004.34
2022-11-16T00:48:03.919Z,1004.38
2022-11-16T00:49:03.897Z,1004.33
2022-11-16T00:50:03.894Z,1004.32
2022-11-16T00:51:03.888Z,1004.30
2022-11-16T00:52:03.888Z,1004.25
2022-11-16T00:53:03.885Z,1004.26
2022-11-16T00:54:03.884Z,1004.21
2022-11-16T00:55:03.892Z,1004.17
2022-11-16T00:56:03.878Z,1004.16
2022-11-16T00:57:03.872Z,1004.21
2022-11-16T00:58:03.878Z,1004.18
2022-11-16T00:59:03.864Z,1004.19
2022-11-16T01:00:03.866Z,1004.17
2022-11-16T01:01:03.935Z,1004.16
2022-11-16T01:02:03.859Z,1004.14
2022-11-16T01:03:03.853Z,1004.14
2022-11-16T01:04:03.872Z,1004.11
2022-11-16T01:05:03.849Z,1004.11
2022-11-16T01:06:03.860Z,1004.09
2022-11-16T01:07:03.900Z,1004.05
2022-11-16T01:08:03.838Z,1004.09
2022-11-16T01:09:03.837Z,1004.08
2022-11-16T01:10:03.836Z,1004.05
2022-11-16T01:11:03.835Z,1004.02
2022-11-16T01:12:03.827Z,1004.01
2022-11-16T01:13:03.825Z,1003.94
2022-11-16T01:14:03.823Z,1003.94
2022-11-16T01:15:03.821Z,1004.00
2022-11-16T01:16:03.818Z,1003.98
2022-11-16T01:17:03.812Z,1004.01
2022-11-16T01:18:03.811Z,1003.99
2022-11-16T01:19:03.828Z,1003.98
2022-11-16T01:20:03.823Z,1003.99
2022-11-16T01:21:03.799Z,1003.97
2022-11-16T01:22:03.795Z,1003.97
2022-11-16T01:23:03.793Z,1003.99
2022-11-16T01:24:03.790Z,1003.98
2022-11-16T01:25:03.790Z,1003.97
2022-11-16T01:26:03.791Z,1004.01
2022-11-16T01:27:03.783Z,1004.03
2022-11-16T01:28:03.780Z,1004.02
2022-11-16T01:29:03.782Z,1004.05
2022-11-16T01:30:03.776Z,1004.06
2022-11-16T01:31:03.771Z,1004.10
2022-11-16T01:32:03.769Z,1004.11
2022-11-16T01:33:03.763Z,1004.12
2022-11-16T01:34:03.763Z,1004.16
2022-11-16T01:35:03.758Z,1004.15
2022-11-16T01:36:03.777Z,1004.14
2022-11-16T01:37:03.751Z,1004.13
2022-11-16T01:38:03.753Z,1004.11
2022-11-16T01:39:03.745Z,1004.14
2022-11-16T01:40:03.746Z,1004.11
2022-11-16T01:41:03.744Z,1004.08
2022-11-16T01:42:03.738Z,1004.11
2022-11-16T01:43:03.732Z,1004.15
2022-11-16T01:44:03.734Z,1004.08
2022-11-16T01:45:03.735Z,1004.08
2022-11-16T01:46:03.725Z,1004.09
2022-11-16T01:47:03.727Z,1004.06
2022-11-16T01:48:03.775Z,1004.05
2022-11-16T01:49:04.041Z,1004.07
2022-11-16T01:50:03.716Z,1004.04
2022-11-16T01:51:03.712Z,1004.01
2022-11-16T01:52:03.726Z,1004.07
2022-11-16T01:53:03.702Z,1004.05
2022-11-16T01:54:03.702Z,1004.07
2022-11-16T01:55:03.696Z,1004.05
2022-11-16T01:56:03.694Z,1004.05
2022-11-16T01:57:03.691Z,1004.06
2022-11-16T01:58:03.691Z,1004.07
2022-11-16T01:59:03.685Z,1004.03
2022-11-16T02:00:03.682Z,1004.07
2022-11-16T02:01:03.738Z,1004.06
2022-11-16T02:02:03.678Z,1004.06
2022-11-16T02:03:03.677Z,1004.02
2022-11-16T02:04:03.675Z,1003.98
2022-11-16T02:05:03.667Z,1004.04
2022-11-16T02:06:03.665Z,1003.96
2022-11-16T02:07:03.701Z,1003.95
2022-11-16T02:08:03.682Z,1003.95
2022-11-16T02:09:03.659Z,1003.98
2022-11-16T02:10:03.651Z,1003.95
2022-11-16T02:11:03.650Z,1003.91
2022-11-16T02:12:03.646Z,1003.95
2022-11-16T02:13:03.643Z,1003.96
2022-11-16T02:14:03.641Z,1003.89
2022-11-16T02:15:03.635Z,1003.93
2022-11-16T02:16:03.634Z,1003.87
2022-11-16T02:17:03.629Z,1003.93
2022-11-16T02:18:03.641Z,1003.88
2022-11-16T02:19:03.624Z,1003.88
2022-11-16T02:20:03.627Z,1003.86
2022-11-16T02:21:03.617Z,1003.88
2022-11-16T02:22:03.618Z,1003.88
2022-11-16T02:23:03.614Z,1003.83
2022-11-16T02:24:03.631Z,1003.81
2022-11-16T02:25:03.604Z,1003.84
2022-11-16T02:26:03.612Z,1003.82
2022-11-16T02:27:03.601Z,1003.85
2022-11-16T02:28:03.599Z,1003.84
2022-11-16T02:29:03.591Z,1003.89
2022-11-16T02:30:03.593Z,1003.86
2022-11-16T02:31:03.587Z,1003.86
2022-11-16T02:32:03.588Z,1003.87
2022-11-16T02:33:03.584Z,1003.87
2022-11-16T02:34:03.584Z,1003.86
2022-11-16T02:35:03.573Z,1003.81
2022-11-16T02:36:03.574Z,1003.86
2022-11-16T02:37:03.569Z,1003.85
2022-11-16T02:38:03.577Z,1003.80
2022-11-16T02:39:03.572Z,1003.74
2022-11-16T02:40:03.588Z,1003.70
2022-11-16T02:41:03.586Z,1003.70
2022-11-16T02:42:03.565Z,1003.68
2022-11-16T02:43:03.552Z,1003.67
2022-11-16T02:44:03.556Z,1003.64
2022-11-16T02:45:03.558Z,1003.57
2022-11-16T02:46:04.023Z,1003.58
2022-11-16T02:47:03.545Z,1003.55
2022-11-16T02:48:03.557Z,1003.55
2022-11-16T02:49:03.556Z,1003.48
2022-11-16T02:50:03.545Z,1003.54
2022-11-16T02:51:03.593Z,1003.49
2022-11-16T02:52:03.563Z,1003.45
2022-11-16T02:53:03.540Z,1003.44
2022-11-16T02:54:03.525Z,1003.43
2022-11-16T02:55:03.521Z,1003.39
2022-11-16T02:56:03.538Z,1003.35
2022-11-16T02:57:03.506Z,1003.31
2022-11-16T02:58:03.506Z,1003.27
2022-11-16T02:59:03.509Z,1003.29
2022-11-16T03:00:03.497Z,1003.32
2022-11-16T03:01:03.550Z,1003.30
2022-11-16T03:02:03.493Z,1003.32
2022-11-16T03:03:03.487Z,1003.31
2022-11-16T03:04:03.484Z,1003.31
2022-11-16T03:05:03.482Z,1003.34
2022-11-16T03:06:03.479Z,1003.31
2022-11-16T03:07:03.570Z,1003.33
2022-11-16T03:08:03.470Z,1003.32
2022-11-16T03:09:03.472Z,1003.34
2022-11-16T03:10:03.463Z,1003.36
2022-11-16T03:11:03.469Z,1003.35
2022-11-16T03:12:03.477Z,1003.33
2022-11-16T03:13:03.466Z,1003.33
2022-11-16T03:14:03.451Z,1003.34
2022-11-16T03:15:03.450Z,1003.34
2022-11-16T03:16:03.446Z,1003.34
2022-11-16T03:17:03.443Z,1003.36
2022-11-16T03:18:03.438Z,1003.33
2022-11-16T03:19:03.438Z,1003.32
2022-11-16T03:20:03.435Z,1003.31
2022-11-16T03:21:03.435Z,1003.29
2022-11-16T03:22:03.426Z,1003.29
2022-11-16T03:23:03.427Z,1003.30
2022-11-16T03:24:03.423Z,1003.28
2022-11-16T03:25:03.416Z,1003.30
2022-11-16T03:26:03.419Z,1003.26
2022-11-16T03:27:03.413Z,1003.23
2022-11-16T03:28:03.428Z,1003.28
2022-11-16T03:29:03.405Z,1003.24
2022-11-16T03:30:03.414Z,1003.23
2022-11-16T03:31:03.406Z,1003.23
2022-11-16T03:32:03.600Z,1003.23
2022-11-16T03:33:03.396Z,1003.24
2022-11-16T03:34:03.395Z,1003.22
2022-11-16T03:35:03.407Z,1003.24
2022-11-16T03:36:03.391Z,1003.25
2022-11-16T03:37:03.391Z,1003.21
2022-11-16T03:38:03.380Z,1003.28
2022-11-16T03:39:03.379Z,1003.31
2022-11-16T03:40:03.377Z,1003.33
2022-11-16T03:41:03.377Z,1003.28
2022-11-16T03:42:03.361Z,1003.27
2022-11-16T03:43:03.367Z,1003.26
2022-11-16T03:44:03.387Z,1003.27
2022-11-16T03:45:03.354Z,1003.33
2022-11-16T03:46:03.351Z,1003.31
2022-11-16T03:47:03.357Z,1003.34
2022-11-16T03:48:03.346Z,1003.29
2022-11-16T03:49:03.343Z,1003.28
2022-11-16T03:50:03.340Z,1003.32
2022-11-16T03:51:03.338Z,1003.25
2022-11-16T03:52:03.333Z,1003.26
2022-11-16T03:53:03.328Z,1003.27
2022-11-16T03:54:03.324Z,1003.32
2022-11-16T03:55:03.322Z,1003.30
2022-11-16T03:56:03.327Z,1003.27
2022-11-16T03:57:03.317Z,1003.28
2022-11-16T03:58:03.382Z,1003.30
2022-11-16T03:59:03.309Z,1003.29
2022-11-16T04:00:03.324Z,1003.26
2022-11-16T04:01:03.377Z,1003.30
2022-11-16T04:02:03.300Z,1003.29
2022-11-16T04:03:03.296Z,1003.27
2022-11-16T04:04:03.291Z,1003.26
2022-11-16T04:05:03.302Z,1003.31
2022-11-16T04:06:03.286Z,1003.19
2022-11-16T04:07:03.370Z,1003.25
2022-11-16T04:08:03.282Z,1003.17
2022-11-16T04:09:03.284Z,1003.14
2022-11-16T04:10:03.271Z,1003.12
2022-11-16T04:11:03.275Z,1003.07
2022-11-16T04:12:03.270Z,1003.06
2022-11-16T04:13:03.271Z,1003.02
2022-11-16T04:14:08.025Z,1003.06
2022-11-16T04:15:03.281Z,1003.02
2022-11-16T04:16:03.274Z,1002.99
2022-11-16T04:17:03.250Z,1002.98
2022-11-16T04:18:03.245Z,1003.00
2022-11-16T04:19:03.246Z,1003.02
2022-11-16T04:20:03.240Z,1003.06
2022-11-16T04:21:03.238Z,1003.05
2022-11-16T04:22:03.234Z,1003.05
2022-11-16T04:23:03.234Z,1003.06
2022-11-16T04:24:03.229Z,1003.03
2022-11-16T04:25:03.227Z,1003.00
2022-11-16T04:26:03.224Z,1003.03
2022-11-16T04:27:03.222Z,1003.04
2022-11-16T04:28:03.219Z,1002.96
2022-11-16T04:29:03.217Z,1002.96
2022-11-16T04:30:03.209Z,1003.01
2022-11-16T04:31:03.207Z,1002.97
2022-11-16T04:32:03.231Z,1002.93
2022-11-16T04:33:03.212Z,1002.93
2022-11-16T04:34:03.199Z,1002.93
2022-11-16T04:35:03.226Z,1002.90
2022-11-16T04:36:03.192Z,1002.88
2022-11-16T04:37:03.191Z,1002.87
2022-11-16T04:38:03.187Z,1002.83
2022-11-16T04:39:03.184Z,1002.87
2022-11-16T04:40:03.183Z,1002.87
2022-11-16T04:41:03.178Z,1002.82
2022-11-16T04:42:03.175Z,1002.84
2022-11-16T04:43:03.176Z,1002.81
2022-11-16T04:44:03.168Z,1002.84
2022-11-16T04:45:03.163Z,1002.78
2022-11-16T04:46:03.157Z,1002.85
2022-11-16T04:47:03.158Z,1002.80
2022-11-16T04:48:03.175Z,1002.79
2022-11-16T04:49:03.159Z,1002.74
2022-11-16T04:50:03.155Z,1002.85
2022-11-16T04:51:03.146Z,1002.82
2022-11-16T04:52:03.138Z,1002.83
2022-11-16T04:53:03.141Z,1002.80
2022-11-16T04:54:03.142Z,1002.73
2022-11-16T04:55:03.150Z,1002.79
2022-11-16T04:56:03.130Z,1002.80
2022-11-16T04:57:03.127Z,1002.75
2022-11-16T04:58:03.138Z,1002.73
2022-11-16T04:59:03.120Z,1002.71
2022-11-16T05:00:03.114Z,1002.75
2022-11-16T05:01:03.190Z,1002.72
2022-11-16T05:02:03.109Z,1002.71
2022-11-16T05:03:03.114Z,1002.70
2022-11-16T05:04:03.125Z,1002.70
2022-11-16T05:05:03.104Z,1002.69
2022-11-16T05:06:03.101Z,1002.69
2022-11-16T05:07:03.164Z,1002.70
2022-11-16T05:08:03.090Z,1002.70
2022-11-16T05:09:03.093Z,1002.66
2022-11-16T05:10:03.091Z,1002.67
2022-11-16T05:11:03.083Z,1002.69
2022-11-16T05:12:03.080Z,1002.71
2022-11-16T05:13:03.079Z,1002.69
2022-11-16T05:14:03.076Z,1002.69
2022-11-16T05:15:03.074Z,1002.65
2022-11-16T05:16:03.068Z,1002.69
2022-11-16T05:17:03.068Z,1002.69
2022-11-16T05:18:03.076Z,1002.70
2022-11-16T05:19:03.060Z,1002.67
2022-11-16T05:20:03.081Z,1002.68
2022-11-16T05:21:03.056Z,1002.68
2022-11-16T05:22:03.052Z,1002.63
2022-11-16T05:23:03.053Z,1002.65
2022-11-16T05:24:03.042Z,1002.66
2022-11-16T05:25:03.046Z,1002.64
2022-11-16T05:26:03.038Z,1002.64
2022-11-16T05:27:03.033Z,1002.68
2022-11-16T05:28:03.061Z,1002.67
2022-11-16T05:29:03.034Z,1002.72
2022-11-16T05:30:03.031Z,1002.66
2022-11-16T05:31:03.025Z,1002.65
2022-11-16T05:32:03.027Z,1002.67
2022-11-16T05:33:03.019Z,1002.68
2022-11-16T05:34:03.018Z,1002.71
2022-11-16T05:35:03.013Z,1002.69
2022-11-16T05:36:03.029Z,1002.69
2022-11-16T05:37:03.010Z,1002.69
2022-11-16T05:38:03.012Z,1002.71
2022-11-16T05:39:03.000Z,1002.68
2022-11-16T05:40:03.000Z,1002.69
2022-11-16T05:41:02.996Z,1002.68
2022-11-16T05:42:02.994Z,1002.69
2022-11-16T05:43:03.001Z,1002.70
2022-11-16T05:44:03.003Z,1002.68
2022-11-16T05:45:03.005Z,1002.73
2022-11-16T05:46:02.986Z,1002.72
2022-11-16T05:47:02.979Z,1002.72
2022-11-16T05:48:02.978Z,1002.80
2022-11-16T05:49:02.972Z,1002.80
2022-11-16T05:50:02.967Z,1002.80
2022-11-16T05:51:02.967Z,1002.79
2022-11-16T05:52:02.990Z,1002.77
2022-11-16T05:53:02.960Z,1002.77
2022-11-16T05:54:02.951Z,1002.83
2022-11-16T05:55:02.953Z,1002.85
2022-11-16T05:56:03.040Z,1002.87
2022-11-16T05:57:02.947Z,1002.87
2022-11-16T05:58:02.941Z,1002.84
2022-11-16T05:59:02.967Z,1002.88
2022-11-16T06:00:02.937Z,1002.90
2022-11-16T06:01:02.933Z,1002.92
2022-11-16T06:02:02.929Z,1002.94
2022-11-16T06:03:03.059Z,1002.92
2022-11-16T06:04:02.922Z,1002.95
2022-11-16T06:05:02.956Z,1002.91
2022-11-16T06:06:02.922Z,1002.92
2022-11-16T06:07:03.004Z,1002.93
2022-11-16T06:08:02.917Z,1002.95
2022-11-16T06:09:02.913Z,1002.94
2022-11-16T06:10:02.914Z,1002.96
2022-11-16T06:11:02.905Z,1002.95
2022-11-16T06:12:02.903Z,1003.02
2022-11-16T06:13:02.900Z,1003.02
2022-11-16T06:14:02.896Z,1002.99
2022-11-16T06:15:02.892Z,1002.98
2022-11-16T06:16:03.262Z,1002.99
2022-11-16T06:17:02.886Z,1002.98
2022-11-16T06:18:02.886Z,1002.96
2022-11-16T06:19:02.889Z,1002.98
2022-11-16T06:20:02.882Z,1002.98
2022-11-16T06:21:02.879Z,1002.98
2022-11-16T06:22:02.878Z,1003.00
2022-11-16T06:23:02.870Z,1003.00
2022-11-16T06:24:02.867Z,1003.01
2022-11-16T06:25:02.864Z,1003.02
2022-11-16T06:26:02.864Z,1003.02
2022-11-16T06:27:02.864Z,1003.05
2022-11-16T06:28:06.741Z,1003.07
2022-11-16T06:29:02.852Z,1003.11
2022-11-16T06:30:02.851Z,1003.09
2022-11-16T06:31:02.848Z,1003.09
2022-11-16T06:32:03.035Z,1003.09
2022-11-16T06:33:02.844Z,1003.09
2022-11-16T06:34:02.844Z,1003.09
2022-11-16T06:35:02.839Z,1003.12
2022-11-16T06:36:02.832Z,1003.11
2022-11-16T06:37:02.833Z,1003.13
2022-11-16T06:38:02.826Z,1003.14
2022-11-16T06:39:02.831Z,1003.14
2022-11-16T06:40:02.825Z,1003.14
2022-11-16T06:41:02.830Z,1003.14
2022-11-16T06:42:02.815Z,1003.15
2022-11-16T06:43:02.816Z,1003.15
2022-11-16T06:44:02.814Z,1003.17
2022-11-16T06:45:02.808Z,1003.15
2022-11-16T06:46:02.807Z,1003.16
2022-11-16T06:47:02.806Z,1003.15
2022-11-16T06:48:02.913Z,1003.15
2022-11-16T06:49:02.798Z,1003.18
2022-11-16T06:50:02.799Z,1003.14
2022-11-16T06:51:02.797Z,1003.15
2022-11-16T06:52:02.790Z,1003.15
2022-11-16T06:53:02.786Z,1003.10
2022-11-16T06:54:02.782Z,1003.11
2022-11-16T06:55:02.779Z,1003.10
2022-11-16T06:56:02.784Z,1003.15
2022-11-16T06:57:02.774Z,1003.11
2022-11-16T06:58:02.777Z,1003.14
2022-11-16T06:59:02.772Z,1003.15
2022-11-16T07:00:02.766Z,1003.18
2022-11-16T07:01:02.764Z,1003.14
2022-11-16T07:02:02.810Z,1003.13
2022-11-16T07:03:02.758Z,1003.21
2022-11-16T07:04:02.876Z,1003.18
2022-11-16T07:05:03.922Z,1003.24
2022-11-16T07:06:02.752Z,1003.21
2022-11-16T07:07:02.808Z,1003.18
2022-11-16T07:08:02.746Z,1003.17
2022-11-16T07:09:02.744Z,1003.20
2022-11-16T07:10:02.737Z,1003.22
2022-11-16T07:11:04.284Z,1003.24
2022-11-16T07:12:02.735Z,1003.23
2022-11-16T07:13:02.731Z,1003.28
2022-11-16T07:14:02.732Z,1003.25
2022-11-16T07:15:02.728Z,1003.25
2022-11-16T07:16:02.726Z,1003.31
2022-11-16T07:17:08.061Z,1003.32
2022-11-16T07:18:02.727Z,1003.30
2022-11-16T07:19:02.723Z,1003.30
2022-11-16T07:20:02.738Z,1003.32
2022-11-16T07:21:02.712Z,1003.36
2022-11-16T07:22:02.714Z,1003.32
2022-11-16T07:23:02.704Z,1003.37
2022-11-16T07:24:02.707Z,1003.37
2022-11-16T07:25:02.697Z,1003.38
2022-11-16T07:26:02.697Z,1003.39
2022-11-16T07:27:02.698Z,1003.36
2022-11-16T07:28:02.690Z,1003.38
2022-11-16T07:29:02.689Z,1003.38
2022-11-16T07:30:02.689Z,1003.34
2022-11-16T07:31:02.685Z,1003.36
2022-11-16T07:32:02.677Z,1003.37
2022-11-16T07:33:02.690Z,1003.37
2022-11-16T07:34:02.673Z,1003.46
2022-11-16T07:35:02.674Z,1003.43
2022-11-16T07:36:02.900Z,1003.40
2022-11-16T07:37:02.671Z,1003.42
2022-11-16T07:38:02.671Z,1003.43
2022-11-16T07:39:02.658Z,1003.38
2022-11-16T07:40:02.659Z,1003.42
2022-11-16T07:41:02.657Z,1003.38
2022-11-16T07:42:02.651Z,1003.42
2022-11-16T07:43:02.646Z,1003.43
2022-11-16T07:44:02.651Z,1003.43
2022-11-16T07:45:02.645Z,1003.40
2022-11-16T07:46:30.206Z,1003.41
2022-11-16T07:47:02.636Z,1003.40
2022-11-16T07:48:02.652Z,1003.39
2022-11-16T07:49:05.874Z,1003.39
2022-11-16T07:50:02.640Z,1003.37
2022-11-16T07:51:02.631Z,1003.41
2022-11-16T07:52:02.740Z,1003.41
2022-11-16T07:53:02.622Z,1003.39
2022-11-16T07:54:02.625Z,1003.40
2022-11-16T07:55:02.621Z,1003.42
2022-11-16T07:56:02.616Z,1003.43
2022-11-16T07:57:02.614Z,1003.40
2022-11-16T07:58:02.609Z,1003.40
2022-11-16T07:59:02.603Z,1003.43
2022-11-16T08:00:02.609Z,1003.38
2022-11-16T08:01:02.604Z,1003.40
2022-11-16T08:02:02.650Z,1003.40
2022-11-16T08:03:02.595Z,1003.39
2022-11-16T08:04:02.595Z,1003.41
2022-11-16T08:05:02.589Z,1003.41
2022-11-16T08:06:02.589Z,1003.40
2022-11-16T08:07:02.654Z,1003.42
2022-11-16T08:08:02.707Z,1003.43
2022-11-16T08:09:02.583Z,1003.43
2022-11-16T08:10:02.657Z,1003.45
2022-11-16T08:11:02.574Z,1003.50
2022-11-16T08:12:02.568Z,1003.50
2022-11-16T08:13:02.569Z,1003.53
2022-11-16T08:14:02.567Z,1003.50
2022-11-16T08:15:02.564Z,1003.49
2022-11-16T08:16:02.560Z,1003.45
2022-11-16T08:17:02.561Z,1003.46
2022-11-16T08:18:02.557Z,1003.48
2022-11-16T08:19:02.553Z,1003.41
2022-11-16T08:20:02.553Z,1003.43
2022-11-16T08:21:02.548Z,1003.43
2022-11-16T08:22:02.546Z,1003.41
2022-11-16T08:23:02.541Z,1003.39
2022-11-16T08:24:02.657Z,1003.37
2022-11-16T08:25:02.534Z,1003.35
2022-11-16T08:26:02.540Z,1003.36
2022-11-16T08:27:02.533Z,1003.38
2022-11-16T08:28:02.531Z,1003.37
2022-11-16T08:29:02.558Z,1003.31
2022-11-16T08:30:02.524Z,1003.38
2022-11-16T08:31:02.519Z,1003.37
2022-11-16T08:32:02.517Z,1003.35
2022-11-16T08:33:02.517Z,1003.35
2022-11-16T08:34:02.514Z,1003.36
2022-11-16T08:35:02.512Z,1003.41
2022-11-16T08:36:02.507Z,1003.35
2022-11-16T08:37:02.513Z,1003.35
2022-11-16T08:38:02.506Z,1003.37
2022-11-16T08:39:02.502Z,1003.32
2022-11-16T08:40:02.519Z,1003.31
2022-11-16T08:41:02.815Z,1003.31
2022-11-16T08:42:02.499Z,1003.33
2022-11-16T08:43:02.814Z,1003.30
2022-11-16T08:44:02.482Z,1003.34
2022-11-16T08:45:02.517Z,1003.26
2022-11-16T08:46:02.483Z,1003.26
2022-11-16T08:47:02.481Z,1003.26
2022-11-16T08:48:04.316Z,1003.24
2022-11-16T08:49:02.778Z,1003.25
2022-11-16T08:50:02.470Z,1003.25
2022-11-16T08:51:17.038Z,1003.25
2022-11-16T08:52:02.466Z,1003.22
2022-11-16T08:53:02.458Z,1003.29
2022-11-16T08:54:02.468Z,1003.27
2022-11-16T08:55:02.462Z,1003.22
2022-11-16T08:56:02.480Z,1003.24
2022-11-16T08:57:02.457Z,1003.19
2022-11-16T08:58:02.458Z,1003.22
2022-11-16T08:59:02.445Z,1003.22
2022-11-16T09:00:02.444Z,1003.21
2022-11-16T09:01:02.438Z,1003.20
2022-11-16T09:02:02.538Z,1003.19
2022-11-16T09:03:02.433Z,1003.15
2022-11-16T09:04:02.427Z,1003.14
2022-11-16T09:05:02.428Z,1003.08
2022-11-16T09:06:02.424Z,1003.10
2022-11-16T09:07:02.632Z,1003.14
2022-11-16T09:08:02.420Z,1003.13
2022-11-16T09:09:02.411Z,1003.13
2022-11-16T09:10:02.421Z,1003.10
2022-11-16T09:11:02.417Z,1003.09
2022-11-16T09:12:02.520Z,1003.10
2022-11-16T09:13:02.405Z,1003.11
2022-11-16T09:14:02.402Z,1003.09
2022-11-16T09:15:02.396Z,1003.10
2022-11-16T09:16:02.395Z,1003.07
2022-11-16T09:17:02.390Z,1003.13
2022-11-16T09:18:02.396Z,1003.05
2022-11-16T09:19:02.387Z,1003.05
2022-11-16T09:20:02.446Z,1003.06
2022-11-16T09:21:02.384Z,1003.04
2022-11-16T09:22:02.379Z,1003.07
2022-11-16T09:23:02.376Z,1003.06
2022-11-16T09:24:02.391Z,1003.00
2022-11-16T09:25:02.372Z,1003.07
2022-11-16T09:26:02.375Z,1003.03
2022-11-16T09:27:02.377Z,1003.06
2022-11-16T09:28:02.485Z,1003.06
2022-11-16T09:29:02.366Z,1003.05
2022-11-16T09:30:02.360Z,1003.04
2022-11-16T09:31:02.357Z,1003.07
2022-11-16T09:32:02.358Z,1003.09
2022-11-16T09:33:02.349Z,1003.03
2022-11-16T09:34:02.346Z,1003.04
2022-11-16T09:35:02.342Z,1003.03
2022-11-16T09:36:02.349Z,1002.99
2022-11-16T09:37:02.337Z,1003.03
2022-11-16T09:38:02.334Z,1002.99
2022-11-16T09:39:32.199Z,1002.97
2022-11-16T09:40:02.334Z,1002.94
2022-11-16T09:41:02.325Z,1002.90
2022-11-16T09:42:02.329Z,1002.93
2022-11-16T09:43:02.328Z,1002.94
2022-11-16T09:44:02.432Z,1002.86
2022-11-16T09:45:02.317Z,1002.87
2022-11-16T09:46:02.316Z,1002.86
2022-11-16T09:47:02.312Z,1002.86
2022-11-16T09:48:02.307Z,1002.94
2022-11-16T09:49:02.309Z,1002.87
2022-11-16T09:50:03.788Z,1002.82
2022-11-16T09:51:02.310Z,1002.86
2022-11-16T09:52:02.300Z,1002.83
2022-11-16T09:53:02.290Z,1002.80
2022-11-16T09:54:02.291Z,1002.85
2022-11-16T09:55:02.289Z,1002.79
2022-11-16T09:56:02.285Z,1002.83
2022-11-16T09:57:02.284Z,1002.81
2022-11-16T09:58:02.280Z,1002.79
2022-11-16T09:59:02.280Z,1002.75
2022-11-16T10:00:02.391Z,1002.72
2022-11-16T10:01:02.356Z,1002.78
2022-11-16T10:02:02.270Z,1002.79
2022-11-16T10:03:02.271Z,1002.73
2022-11-16T10:04:02.264Z,1002.77
2022-11-16T10:05:02.278Z,1002.71
2022-11-16T10:06:02.261Z,1002.74
2022-11-16T10:07:02.323Z,1002.69
2022-11-16T10:08:02.250Z,1002.67
2022-11-16T10:09:02.258Z,1002.72
2022-11-16T10:10:02.244Z,1002.69
2022-11-16T10:11:02.244Z,1002.62
2022-11-16T10:12:02.239Z,1002.63
2022-11-16T10:13:02.236Z,1002.65
2022-11-16T10:14:04.435Z,1002.65
2022-11-16T10:15:02.230Z,1002.65
2022-11-16T10:16:02.384Z,1002.70
2022-11-16T10:17:02.224Z,1002.66
2022-11-16T10:18:02.226Z,1002.67
2022-11-16T10:19:02.221Z,1002.65
2022-11-16T10:20:02.216Z,1002.65
2022-11-16T10:21:02.221Z,1002.68
2022-11-16T10:22:02.214Z,1002.60
2022-11-16T10:23:02.212Z,1002.61
2022-11-16T10:24:02.203Z,1002.53
2022-11-16T10:25:02.200Z,1002.57
2022-11-16T10:26:02.198Z,1002.57
2022-11-16T10:27:02.226Z,1002.57
2022-11-16T10:28:02.191Z,1002.51
2022-11-16T10:29:02.191Z,1002.56
2022-11-16T10:30:02.196Z,1002.53
2022-11-16T10:31:02.180Z,1002.56
2022-11-16T10:32:02.290Z,1002.57
2022-11-16T10:33:04.507Z,1002.56
2022-11-16T10:34:02.185Z,1002.53
2022-11-16T10:35:02.174Z,1002.55
2022-11-16T10:36:02.176Z,1002.53
2022-11-16T10:37:02.167Z,1002.50
2022-11-16T10:38:02.169Z,1002.47
2022-11-16T10:39:02.160Z,1002.44
2022-11-16T10:40:02.156Z,1002.50
2022-11-16T10:41:02.161Z,1002.46
2022-11-16T10:42:07.280Z,1002.50
2022-11-16T10:43:02.148Z,1002.46
2022-11-16T10:44:02.147Z,1002.50
2022-11-16T10:45:02.138Z,1002.48
2022-11-16T10:46:02.138Z,1002.44
2022-11-16T10:47:02.137Z,1002.40
2022-11-16T10:48:02.157Z,1002.45
2022-11-16T10:49:02.142Z,1002.43
2022-11-16T10:50:02.127Z,1002.38
2022-11-16T10:51:02.142Z,1002.42
2022-11-16T10:52:02.123Z,1002.41
2022-11-16T10:53:02.120Z,1002.42
2022-11-16T10:54:02.121Z,1002.40
2022-11-16T10:55:02.112Z,1002.40
2022-11-16T10:56:02.111Z,1002.35
2022-11-16T10:57:02.105Z,1002.34
2022-11-16T10:58:02.107Z,1002.39
2022-11-16T10:59:02.101Z,1002.36
2022-11-16T11:00:02.098Z,1002.36
2022-11-16T11:01:02.146Z,1002.32
2022-11-16T11:02:02.095Z,1002.36
2022-11-16T11:03:02.095Z,1002.36
2022-11-16T11:04:02.202Z,1002.33
2022-11-16T11:05:02.083Z,1002.35
2022-11-16T11:06:02.085Z,1002.32
2022-11-16T11:07:02.133Z,1002.37
2022-11-16T11:08:02.084Z,1002.34
2022-11-16T11:09:02.086Z,1002.33
2022-11-16T11:10:02.069Z,1002.31
2022-11-16T11:11:02.070Z,1002.31
2022-11-16T11:12:02.064Z,1002.31
2022-11-16T11:13:02.058Z,1002.32
2022-11-16T11:14:02.066Z,1002.30
2022-11-16T11:15:02.067Z,1002.34
2022-11-16T11:16:02.061Z,1002.38
2022-11-16T11:17:02.055Z,1002.39
2022-11-16T11:18:02.048Z,1002.32
2022-11-16T11:19:02.044Z,1002.33
2022-11-16T11:20:02.064Z,1002.31
2022-11-16T11:21:02.038Z,1002.36
2022-11-16T11:22:02.035Z,1002.28
2022-11-16T11:23:02.031Z,1002.34
2022-11-16T11:24:29.303Z,1002.34
2022-11-16T11:25:02.027Z,1002.32
2022-11-16T11:26:02.019Z,1002.32
2022-11-16T11:27:02.020Z,1002.32
2022-11-16T11:28:02.013Z,1002.27
2022-11-16T11:29:02.016Z,1002.33
2022-11-16T11:30:02.028Z,1002.33
2022-11-16T11:31:02.011Z,1002.32
2022-11-16T11:32:02.010Z,1002.35
2022-11-16T11:33:02.001Z,1002.37
2022-11-16T11:34:02.004Z,1002.41
2022-11-16T11:35:01.999Z,1002.35
2022-11-16T11:36:02.108Z,1002.35
2022-11-16T11:37:01.999Z,1002.38
2022-11-16T11:38:07.435Z,1002.35
2022-11-16T11:39:02.025Z,1002.38
2022-11-16T11:40:01.981Z,1002.32
2022-11-16T11:41:01.981Z,1002.34
2022-11-16T11:42:01.981Z,1002.34
2022-11-16T11:43:01.979Z,1002.37
2022-11-16T11:44:01.968Z,1002.36
2022-11-16T11:45:01.971Z,1002.39
2022-11-16T11:46:01.968Z,1002.36
2022-11-16T11:48:01.959Z,1002.39
2022-11-16T11:49:01.959Z,1002.37
2022-11-16T11:50:01.955Z,1002.42
2022-11-16T11:51:01.963Z,1002.42
2022-11-16T11:52:02.070Z,1002.41
2022-11-16T11:53:01.954Z,1002.40
2022-11-16T11:54:01.947Z,1002.37
2022-11-16T11:55:01.946Z,1002.35
2022-11-16T11:56:01.940Z,1002.38
2022-11-16T11:57:01.936Z,1002.34
2022-11-16T11:58:01.943Z,1002.40
2022-11-16T11:59:01.928Z,1002.34
2022-11-16T12:00:01.926Z,1002.36
2022-11-16T12:01:01.927Z,1002.35
2022-11-16T12:02:01.919Z,1002.35
2022-11-16T12:03:01.957Z,1002.35
2022-11-16T12:04:01.914Z,1002.32
2022-11-16T12:05:01.915Z,1002.31
2022-11-16T12:06:01.908Z,1002.34